createdAt,value
2019-03-25T00:00:54.347Z,1.50
2019-03-25T00:03:23.365Z,1.83
2019-03-25T00:05:52.391Z,2.43
2019-03-25T00:08:21.409Z,1.77
2019-03-25T00:10:50.413Z,2.87
2019-03-25T00:13:19.379Z,2.47
2019-03-25T00:15:48.342Z,1.73
2019-03-25T00:18:17.325Z,1.63
2019-03-25T00:20:48.202Z,2.13
2019-03-25T00:23:17.342Z,1.83
2019-03-25T00:25:46.304Z,2.10
2019-03-25T00:28:15.380Z,2.70
2019-03-25T00:30:44.356Z,1.83
2019-03-25T00:33:13.357Z,1.50
2019-03-25T00:35:42.315Z,2.50
2019-03-25T00:38:11.302Z,2.20
2019-03-25T00:40:40.292Z,2.47
2019-03-25T00:43:09.288Z,1.60
2019-03-25T00:45:39.424Z,2.03
2019-03-25T00:48:08.481Z,2.43
2019-03-25T00:50:37.553Z,2.53
2019-03-25T00:53:06.639Z,2.43
2019-03-25T00:55:35.607Z,2.23
2019-03-25T00:58:04.603Z,2.00
2019-03-25T01:00:33.645Z,2.13
2019-03-25T01:03:04.932Z,2.07
2019-03-25T01:05:33.397Z,2.50
2019-03-25T01:08:02.457Z,2.03
2019-03-25T01:10:31.536Z,2.30
2019-03-25T01:13:00.534Z,2.47
2019-03-25T01:15:29.554Z,2.20
2019-03-25T01:17:58.657Z,2.60
2019-03-25T01:20:27.811Z,2.50
2019-03-25T01:22:56.899Z,2.50
2019-03-25T01:25:25.940Z,2.30
2019-03-25T01:27:54.988Z,2.47
2019-03-25T01:30:24.010Z,2.10
2019-03-25T01:32:53.078Z,1.90
2019-03-25T01:35:23.985Z,2.40
2019-03-25T01:37:52.976Z,2.10
2019-03-25T01:40:21.967Z,2.50
2019-03-25T01:42:50.946Z,2.43
2019-03-25T01:45:19.984Z,2.07
2019-03-25T01:47:48.964Z,2.63
2019-03-25T01:50:17.952Z,2.10
2019-03-25T01:52:47.033Z,2.30
2019-03-25T01:55:16.112Z,1.70
2019-03-25T01:57:48.824Z,2.37
2019-03-25T02:00:17.991Z,2.67
2019-03-25T02:02:48.725Z,2.00
2019-03-25T02:05:17.794Z,2.47
2019-03-25T02:07:48.640Z,1.70
2019-03-25T02:10:17.736Z,2.07
2019-03-25T02:12:46.764Z,2.10
2019-03-25T02:15:15.858Z,1.80
2019-03-25T02:17:44.838Z,1.87
2019-03-25T02:20:25.496Z,1.53
2019-03-25T02:22:44.730Z,1.03
2019-03-25T02:25:24.537Z,1.10
2019-03-25T02:27:44.533Z,1.37
2019-03-25T02:30:13.510Z,1.43
2019-03-25T02:32:42.570Z,1.47
2019-03-25T02:35:11.570Z,0.90
2019-03-25T02:37:40.555Z,1.33
2019-03-25T02:40:09.558Z,1.70
2019-03-25T02:42:38.538Z,0.80
2019-03-25T02:45:07.620Z,1.30
2019-03-25T02:47:36.724Z,1.23
2019-03-25T02:50:06.441Z,1.30
2019-03-25T02:52:35.445Z,1.60
2019-03-25T02:55:04.850Z,1.50
2019-03-25T02:57:33.904Z,0.87
2019-03-25T03:00:02.892Z,1.30
2019-03-25T03:02:31.957Z,0.77
2019-03-25T03:05:01.093Z,0.87
2019-03-25T03:07:33.044Z,0.50
2019-03-25T03:10:04.402Z,0.60
2019-03-25T03:12:34.687Z,0.63
2019-03-25T03:15:03.766Z,0.50
2019-03-25T03:17:32.744Z,0.73
2019-03-25T03:20:04.954Z,0.60
2019-03-25T03:22:34.014Z,1.30
2019-03-25T03:25:03.059Z,0.70
2019-03-25T03:27:32.138Z,0.80
2019-03-25T03:30:01.216Z,0.80
2019-03-25T03:32:30.285Z,0.90
2019-03-25T03:34:59.317Z,0.80
2019-03-25T03:37:28.410Z,0.77
2019-03-25T03:39:57.436Z,1.03
2019-03-25T03:42:26.421Z,1.00
2019-03-25T03:44:55.483Z,0.83
2019-03-25T03:47:24.536Z,1.30
2019-03-25T03:49:54.464Z,1.27
2019-03-25T03:52:23.475Z,0.77
2019-03-25T03:54:52.490Z,0.87
2019-03-25T03:57:21.601Z,0.90
2019-03-25T03:59:50.985Z,0.40
2019-03-25T04:02:20.040Z,0.73
2019-03-25T04:04:50.895Z,0.50
2019-03-25T04:07:19.970Z,0.77
2019-03-25T04:09:49.003Z,0.67
2019-03-25T04:12:18.002Z,1.03
2019-03-25T04:14:47.064Z,0.70
2019-03-25T04:17:16.051Z,1.00
2019-03-25T04:19:47.433Z,0.87
2019-03-25T04:22:16.490Z,0.80
2019-03-25T04:24:45.461Z,0.67
2019-03-25T04:27:14.496Z,0.80
2019-03-25T04:29:43.477Z,0.60
2019-03-25T04:32:12.567Z,0.57
2019-03-25T04:34:41.605Z,0.70
2019-03-25T04:37:10.671Z,0.83
2019-03-25T04:39:39.752Z,0.63
2019-03-25T04:42:08.872Z,1.10
2019-03-25T04:44:37.880Z,0.80
2019-03-25T04:47:06.935Z,0.80
2019-03-25T04:49:35.943Z,0.80
2019-03-25T04:52:04.999Z,0.77
2019-03-25T04:54:33.985Z,0.80
2019-03-25T04:57:03.006Z,0.87
2019-03-25T04:59:31.989Z,0.80
2019-03-25T05:02:01.004Z,0.80
2019-03-25T05:04:30.067Z,1.27
2019-03-25T05:06:59.078Z,1.00
2019-03-25T05:09:28.067Z,1.10
2019-03-25T05:11:57.339Z,1.00
2019-03-25T05:14:26.349Z,0.90
2019-03-25T05:16:55.344Z,0.90
2019-03-25T05:19:24.401Z,0.97
2019-03-25T05:21:53.399Z,1.30
2019-03-25T05:24:22.387Z,0.87
2019-03-25T05:26:51.549Z,0.53
2019-03-25T05:29:20.676Z,0.77
2019-03-25T05:31:49.689Z,0.90
2019-03-25T05:34:18.666Z,0.70
2019-03-25T05:36:47.629Z,1.00
2019-03-25T05:39:16.623Z,0.70
2019-03-25T05:41:45.615Z,1.30
2019-03-25T05:44:14.599Z,1.53
2019-03-25T05:46:43.600Z,1.03
2019-03-25T05:49:12.682Z,1.13
2019-03-25T05:51:41.666Z,1.00
2019-03-25T05:54:10.726Z,1.13
2019-03-25T05:56:39.709Z,0.97
2019-03-25T05:59:11.471Z,0.80
2019-03-25T06:01:40.476Z,1.50
2019-03-25T06:04:09.532Z,1.07
2019-03-25T06:06:38.582Z,0.97
2019-03-25T06:09:07.632Z,0.80
2019-03-25T06:11:36.616Z,0.97
2019-03-25T06:14:06.041Z,0.73
2019-03-25T06:16:35.047Z,0.70
2019-03-25T06:19:04.225Z,1.07
2019-03-25T06:21:33.288Z,1.60
2019-03-25T06:24:02.290Z,1.03
2019-03-25T06:26:31.397Z,0.63
2019-03-25T06:29:00.485Z,0.80
2019-03-25T06:31:29.453Z,0.70
2019-03-25T06:33:58.551Z,0.70
2019-03-25T06:36:27.526Z,0.80
2019-03-25T06:38:56.505Z,0.63
2019-03-25T06:41:25.490Z,0.70
2019-03-25T06:43:54.538Z,0.50
2019-03-25T06:46:23.727Z,0.40
2019-03-25T06:48:55.314Z,0.73
2019-03-25T06:51:24.301Z,0.53
2019-03-25T06:53:53.561Z,0.67
2019-03-25T06:56:22.564Z,0.50
2019-03-25T06:58:51.740Z,0.40
2019-03-25T07:01:20.813Z,0.50
2019-03-25T07:03:51.446Z,0.30
2019-03-25T07:06:20.425Z,0.40
2019-03-25T07:08:49.433Z,0.63
2019-03-25T07:11:18.454Z,0.60
2019-03-25T07:13:47.536Z,0.50
2019-03-25T07:16:16.548Z,0.97
2019-03-25T07:18:45.584Z,0.70
2019-03-25T07:21:14.613Z,0.80
2019-03-25T07:23:43.830Z,0.67
2019-03-25T07:26:12.935Z,0.50
2019-03-25T07:28:41.921Z,0.63
2019-03-25T07:31:11.016Z,0.70
2019-03-25T07:33:40.005Z,0.70
2019-03-25T07:36:08.999Z,0.83
2019-03-25T07:38:37.997Z,0.90
2019-03-25T07:41:07.061Z,1.00
2019-03-25T07:43:36.107Z,0.73
2019-03-25T07:46:06.882Z,0.80
2019-03-25T07:48:35.927Z,0.87
2019-03-25T07:51:04.910Z,0.90
2019-03-25T07:53:33.901Z,1.50
2019-03-25T07:56:02.977Z,1.13
2019-03-25T07:58:32.802Z,1.80
2019-03-25T08:01:01.882Z,1.37
2019-03-25T08:03:36.261Z,2.30
2019-03-25T08:06:05.323Z,1.00
2019-03-25T08:08:34.361Z,1.00
2019-03-25T08:11:03.460Z,0.77
2019-03-25T08:13:34.595Z,0.83
2019-03-25T08:16:03.488Z,0.90
2019-03-25T08:18:32.676Z,1.07
2019-03-25T08:21:02.193Z,1.07
2019-03-25T08:23:33.927Z,0.97
2019-03-25T08:26:02.950Z,1.03
2019-03-25T08:28:32.000Z,1.13
2019-03-25T08:31:00.981Z,0.80
2019-03-25T08:33:30.005Z,0.80
2019-03-25T08:35:59.049Z,0.90
2019-03-25T08:38:28.026Z,0.40
2019-03-25T08:40:57.119Z,0.90
2019-03-25T08:43:26.102Z,0.80
2019-03-25T08:45:55.140Z,0.67
2019-03-25T08:48:24.140Z,0.63
2019-03-25T08:50:53.258Z,0.63
2019-03-25T08:53:22.306Z,1.23
2019-03-25T08:55:51.795Z,0.97
2019-03-25T08:58:20.793Z,0.73
2019-03-25T09:00:49.863Z,0.80
2019-03-25T09:03:18.951Z,0.50
2019-03-25T09:05:47.986Z,0.50
2019-03-25T09:08:17.005Z,0.93
2019-03-25T09:10:46.092Z,0.70
2019-03-25T09:13:15.129Z,0.70
2019-03-25T09:15:44.182Z,0.90
2019-03-25T09:18:13.187Z,0.90
2019-03-25T09:20:42.297Z,0.80
2019-03-25T09:23:11.475Z,1.00
2019-03-25T09:25:40.470Z,0.87
2019-03-25T09:28:09.484Z,0.77
2019-03-25T09:30:58.156Z,0.80
2019-03-25T09:33:27.208Z,0.50
2019-03-25T09:35:56.307Z,0.57
2019-03-25T09:38:25.343Z,0.50
2019-03-25T09:40:54.322Z,0.53
2019-03-25T09:43:23.328Z,0.80
2019-03-25T09:45:52.434Z,0.63
2019-03-25T09:48:21.515Z,0.40
2019-03-25T09:50:50.630Z,0.50
2019-03-25T09:53:19.701Z,0.30
2019-03-25T09:55:48.770Z,0.70
2019-03-25T09:58:17.794Z,0.40
2019-03-25T10:00:46.785Z,0.47
2019-03-25T10:03:15.843Z,0.67
2019-03-25T10:05:44.835Z,0.40
2019-03-25T10:08:13.887Z,0.40
2019-03-25T10:10:42.924Z,0.50
2019-03-25T10:13:14.106Z,0.53
2019-03-25T10:15:43.118Z,0.40
2019-03-25T10:18:12.184Z,0.60
2019-03-25T10:20:41.227Z,0.63
2019-03-25T10:23:10.261Z,0.70
2019-03-25T10:25:39.338Z,0.37
2019-03-25T10:28:08.377Z,0.63
2019-03-25T10:30:37.437Z,0.40
2019-03-25T10:33:06.502Z,0.83
2019-03-25T10:35:35.567Z,0.47
2019-03-25T10:38:04.659Z,0.57
2019-03-25T10:40:33.816Z,0.80
2019-03-25T10:43:02.825Z,0.70
2019-03-25T10:45:31.968Z,0.80
2019-03-25T10:48:01.074Z,0.50
2019-03-25T10:50:30.148Z,0.50
2019-03-25T10:52:59.270Z,0.60
2019-03-25T10:55:28.331Z,0.50
2019-03-25T10:57:57.432Z,0.63
2019-03-25T11:00:26.485Z,0.93
2019-03-25T11:02:55.558Z,0.50
2019-03-25T11:05:24.594Z,0.83
2019-03-25T11:07:55.802Z,0.87
2019-03-25T11:10:24.867Z,0.70
2019-03-25T11:12:55.200Z,0.60
2019-03-25T11:15:24.198Z,0.57
2019-03-25T11:17:53.220Z,0.73
2019-03-25T11:20:22.340Z,0.50
2019-03-25T11:22:51.330Z,0.70
2019-03-25T11:25:20.382Z,0.70
2019-03-25T11:27:54.374Z,0.80
2019-03-25T11:30:22.610Z,0.90
2019-03-25T11:32:51.608Z,0.77
2019-03-25T11:35:20.705Z,0.20
2019-03-25T11:37:49.743Z,0.50
2019-03-25T11:40:18.831Z,0.40
2019-03-25T11:42:47.805Z,0.50
2019-03-25T11:45:16.876Z,1.00
2019-03-25T11:47:45.887Z,0.33
2019-03-25T11:50:14.972Z,0.60
2019-03-25T11:52:44.004Z,0.40
2019-03-25T11:55:13.144Z,0.80
2019-03-25T11:57:42.286Z,0.47
2019-03-25T12:00:11.411Z,0.87
2019-03-25T12:02:40.459Z,0.57
2019-03-25T12:05:09.744Z,0.70
2019-03-25T12:07:38.948Z,0.93
2019-03-25T12:10:08.245Z,1.27
2019-03-25T12:12:37.238Z,1.17
2019-03-25T12:15:06.587Z,0.90
2019-03-25T12:17:35.642Z,0.73
2019-03-25T12:20:04.901Z,1.00
2019-03-25T12:22:33.901Z,1.03
2019-03-25T12:25:02.954Z,1.20
2019-03-25T12:27:32.004Z,1.00
2019-03-25T12:30:01.133Z,0.40
2019-03-25T12:32:30.196Z,0.67
2019-03-25T12:35:01.051Z,0.33
2019-03-25T12:37:30.138Z,0.60
2019-03-25T12:39:59.296Z,0.77
2019-03-25T12:42:30.479Z,1.10
2019-03-25T12:44:59.682Z,0.67
2019-03-25T12:47:28.771Z,0.70
2019-03-25T12:49:57.814Z,0.60
2019-03-25T12:52:26.803Z,0.30
2019-03-25T12:54:55.855Z,0.70
2019-03-25T12:57:24.879Z,0.67
2019-03-25T12:59:53.979Z,1.00
2019-03-25T13:02:23.158Z,0.80
2019-03-25T13:04:52.243Z,0.70
2019-03-25T13:07:21.254Z,0.50
2019-03-25T13:09:50.238Z,0.67
2019-03-25T13:12:19.295Z,0.37
2019-03-25T13:14:48.297Z,0.40
2019-03-25T13:17:17.301Z,1.00
2019-03-25T13:19:46.333Z,0.40
2019-03-25T13:22:20.425Z,0.33
2019-03-25T13:24:49.534Z,0.40
2019-03-25T13:27:18.616Z,0.50
2019-03-25T13:29:52.633Z,1.00
2019-03-25T13:32:21.696Z,0.50
2019-03-25T13:34:50.784Z,0.70
2019-03-25T13:37:20.095Z,0.40
2019-03-25T13:39:50.504Z,0.60
2019-03-25T13:42:19.586Z,0.60
2019-03-25T13:44:48.572Z,0.67
2019-03-25T13:47:18.866Z,0.57
2019-03-25T13:49:49.220Z,0.60
2019-03-25T13:52:18.262Z,0.30
2019-03-25T13:54:48.666Z,0.63
2019-03-25T13:57:19.040Z,0.50
2019-03-25T13:59:48.101Z,0.57
2019-03-25T14:02:17.259Z,0.63
2019-03-25T14:04:46.365Z,0.60
2019-03-25T14:07:15.384Z,0.70
2019-03-25T14:09:44.560Z,0.67
2019-03-25T14:12:13.646Z,0.90
2019-03-25T14:14:42.699Z,0.70
2019-03-25T14:17:12.766Z,0.87
2019-03-25T14:19:41.855Z,0.70
2019-03-25T14:22:13.939Z,0.60
2019-03-25T14:24:43.085Z,0.70
2019-03-25T14:27:13.923Z,0.70
2019-03-25T14:29:43.031Z,0.73
2019-03-25T14:32:12.239Z,0.90
2019-03-25T14:34:44.900Z,0.83
2019-03-25T14:37:12.059Z,1.27
2019-03-25T14:39:41.103Z,0.60
2019-03-25T14:42:10.283Z,0.60
2019-03-25T14:44:39.474Z,1.00
2019-03-25T14:47:08.624Z,0.77
2019-03-25T14:49:37.672Z,0.40
2019-03-25T14:52:07.031Z,0.70
2019-03-25T14:54:36.182Z,0.60
2019-03-25T14:57:05.254Z,0.97
2019-03-25T15:02:56.961Z,0.47
2019-03-25T15:05:44.815Z,0.60
2019-03-25T15:08:13.920Z,0.70
2019-03-25T15:10:53.172Z,0.53
2019-03-25T15:13:14.128Z,0.50
2019-03-25T15:15:43.119Z,0.80
2019-03-25T15:18:15.723Z,0.50
2019-03-25T15:20:43.124Z,0.70
2019-03-25T15:23:12.394Z,0.60
2019-03-25T15:25:43.232Z,0.73
2019-03-25T15:28:12.321Z,0.63
2019-03-25T15:30:41.417Z,0.67
2019-03-25T15:33:10.649Z,0.70
2019-03-25T15:35:39.768Z,0.70
2019-03-25T15:38:08.844Z,0.60
2019-03-25T15:40:38.218Z,0.70
2019-03-25T15:43:07.432Z,0.70
2019-03-25T15:45:40.052Z,0.73
2019-03-25T15:48:09.100Z,0.77
2019-03-25T15:50:38.092Z,0.57
2019-03-25T15:53:07.088Z,0.80
2019-03-25T15:55:39.151Z,0.90
2019-03-25T15:58:08.212Z,0.60
2019-03-25T16:00:47.059Z,0.47
2019-03-25T16:03:09.406Z,0.80
2019-03-25T16:05:38.415Z,0.50
2019-03-25T16:08:07.562Z,0.87
2019-03-25T16:10:36.718Z,0.87
2019-03-25T16:13:05.868Z,0.60
2019-03-25T16:15:41.995Z,0.70
2019-03-25T16:18:17.587Z,0.83
2019-03-25T16:20:46.588Z,0.43
2019-03-25T16:23:15.671Z,0.70
2019-03-25T16:25:44.665Z,0.90
2019-03-25T16:28:13.786Z,0.80
2019-03-25T16:30:42.814Z,0.67
2019-03-25T16:33:11.860Z,0.80
2019-03-25T16:35:40.839Z,0.63
2019-03-25T16:38:09.827Z,0.77
2019-03-25T16:40:44.361Z,0.93
2019-03-25T16:43:15.753Z,0.70
2019-03-25T16:45:44.784Z,2.13
2019-03-25T16:48:14.073Z,1.00
2019-03-25T16:50:43.183Z,2.30
2019-03-25T16:53:12.250Z,1.73
2019-03-25T16:55:41.277Z,0.80
2019-03-25T16:58:10.374Z,0.63
2019-03-25T17:00:39.456Z,0.63
2019-03-25T17:03:08.510Z,0.83
2019-03-25T17:05:42.519Z,0.80
2019-03-25T17:08:11.732Z,0.90
2019-03-25T17:10:40.834Z,0.70
2019-03-25T17:13:09.922Z,0.90
2019-03-25T17:15:41.500Z,0.50
2019-03-25T17:18:10.593Z,0.70
2019-03-25T17:20:39.635Z,0.90
2019-03-25T17:23:11.473Z,0.63
2019-03-25T17:25:40.484Z,0.57
2019-03-25T17:28:09.532Z,0.60
2019-03-25T17:30:38.556Z,0.73
2019-03-25T17:33:07.911Z,0.87
2019-03-25T17:35:37.019Z,1.00
2019-03-25T17:38:06.090Z,0.70
2019-03-25T17:40:35.293Z,1.13
2019-03-25T17:43:04.534Z,1.33
2019-03-25T17:45:33.702Z,0.70
2019-03-25T17:48:02.804Z,0.60
2019-03-25T17:50:31.831Z,0.50
2019-03-25T17:53:00.944Z,0.80
2019-03-25T17:55:30.011Z,0.60
2019-03-25T17:57:59.140Z,0.53
2019-03-25T18:00:47.055Z,0.53
2019-03-25T18:03:16.079Z,0.60
2019-03-25T18:05:45.138Z,0.80
2019-03-25T18:08:14.470Z,0.50
2019-03-25T18:10:43.571Z,0.60
2019-03-25T18:13:21.932Z,0.63
2019-03-25T18:15:43.590Z,0.57
2019-03-25T18:18:12.899Z,0.50
2019-03-25T18:20:41.920Z,0.70
2019-03-25T18:23:11.053Z,0.73
2019-03-25T18:25:40.674Z,1.10
2019-03-25T18:28:09.842Z,1.00
2019-03-25T18:30:38.829Z,0.87
2019-03-25T18:33:07.928Z,0.63
2019-03-25T18:35:37.041Z,0.60
2019-03-25T18:38:06.122Z,0.90
2019-03-25T18:40:35.203Z,0.70
2019-03-25T18:43:04.285Z,0.77
2019-03-25T18:45:35.353Z,0.70
2019-03-25T18:48:04.144Z,1.40
2019-03-25T18:50:33.586Z,1.00
2019-03-25T18:53:02.706Z,0.70
2019-03-25T18:55:31.722Z,0.80
2019-03-25T18:58:00.821Z,1.07
2019-03-25T19:00:33.277Z,0.83
2019-03-25T19:03:02.714Z,0.93
2019-03-25T19:05:31.884Z,1.20
2019-03-25T19:08:02.751Z,0.70
2019-03-25T19:10:35.221Z,0.87
2019-03-25T19:13:05.471Z,0.90
2019-03-25T19:15:34.584Z,1.17
2019-03-25T19:18:03.746Z,1.20
2019-03-25T19:20:32.841Z,1.20
2019-03-25T19:23:01.957Z,1.80
2019-03-25T19:25:31.157Z,1.50
2019-03-25T19:28:00.268Z,1.87
2019-03-25T19:30:29.359Z,1.50
2019-03-25T19:32:58.496Z,1.67
2019-03-25T19:35:29.892Z,1.47
2019-03-25T19:37:58.539Z,2.20
2019-03-25T19:40:27.673Z,2.43
2019-03-25T19:42:59.884Z,2.20
2019-03-25T19:45:30.818Z,2.50
2019-03-25T19:48:00.107Z,2.23
2019-03-25T19:50:29.349Z,3.83
2019-03-25T19:53:00.009Z,4.70
2019-03-25T19:55:29.182Z,6.10
2019-03-25T19:57:58.366Z,7.03
2019-03-25T20:00:34.643Z,4.20
2019-03-25T20:03:03.742Z,4.93
2019-03-25T20:05:32.934Z,3.30
2019-03-25T20:08:03.050Z,2.23
2019-03-25T20:10:36.089Z,2.77
2019-03-25T20:13:05.819Z,2.50
2019-03-25T20:15:45.639Z,2.47
2019-03-25T20:18:05.906Z,2.07
2019-03-25T20:20:35.150Z,2.73
2019-03-25T20:23:04.794Z,2.70
2019-03-25T20:25:34.039Z,2.30
2019-03-25T20:28:03.259Z,2.17
2019-03-25T20:30:32.469Z,1.60
2019-03-25T20:33:05.025Z,2.20
2019-03-25T20:35:34.381Z,2.00
2019-03-25T20:38:03.499Z,2.03
2019-03-25T20:40:32.599Z,1.60
2019-03-25T20:43:01.791Z,1.87
2019-03-25T20:45:31.023Z,1.57
2019-03-25T20:48:00.132Z,1.20
2019-03-25T20:50:29.413Z,1.50
2019-03-25T20:52:58.621Z,1.50
2019-03-25T20:55:27.758Z,1.50
2019-03-25T20:57:56.895Z,1.53
2019-03-25T21:00:37.248Z,1.50
2019-03-25T21:03:06.415Z,1.67
2019-03-25T21:05:35.609Z,2.30
2019-03-25T21:08:04.749Z,2.63
2019-03-25T21:10:33.866Z,3.40
2019-03-25T21:13:02.938Z,3.07
2019-03-25T21:15:32.094Z,4.73
2019-03-25T21:18:01.262Z,4.27
2019-03-25T21:20:30.514Z,3.53
2019-03-25T21:22:59.846Z,2.87
2019-03-25T21:25:29.030Z,2.73
2019-03-25T21:27:58.260Z,2.07
2019-03-25T21:30:28.416Z,2.20
2019-03-25T21:32:58.749Z,1.90
2019-03-25T21:35:28.091Z,1.77
2019-03-25T21:37:57.261Z,1.73
2019-03-25T21:40:26.362Z,1.67
2019-03-25T21:42:55.418Z,1.50
2019-03-25T21:45:24.413Z,1.90
2019-03-25T21:47:53.579Z,1.50
2019-03-25T21:50:23.297Z,1.53
2019-03-25T21:52:52.644Z,1.70
2019-03-25T21:55:21.955Z,1.47
2019-03-25T21:57:51.127Z,1.87
2019-03-25T22:00:22.022Z,1.70
2019-03-25T22:02:51.020Z,1.70
2019-03-25T22:05:20.051Z,1.60
2019-03-25T22:07:49.153Z,1.73
2019-03-25T22:10:18.223Z,1.30
2019-03-25T22:12:47.265Z,1.70
2019-03-25T22:15:16.453Z,1.97
2019-03-25T22:17:45.435Z,1.67
2019-03-25T22:20:14.494Z,1.70
2019-03-25T22:22:43.490Z,1.60
2019-03-25T22:25:12.665Z,1.90
2019-03-25T22:27:41.771Z,2.13
2019-03-25T22:30:10.778Z,1.97
2019-03-25T22:32:39.828Z,1.87
2019-03-25T22:35:08.799Z,2.00
2019-03-25T22:37:37.891Z,1.93
2019-03-25T22:40:07.045Z,2.07
2019-03-25T22:42:36.119Z,2.10
2019-03-25T22:45:05.506Z,2.07
2019-03-25T22:47:36.505Z,2.57
2019-03-25T22:50:06.406Z,1.97
2019-03-25T22:52:35.432Z,2.03
2019-03-25T22:55:05.164Z,2.13
2019-03-25T22:57:34.204Z,1.77
2019-03-25T23:00:03.221Z,1.97
2019-03-25T23:02:32.328Z,1.90
2019-03-25T23:05:01.528Z,2.27
2019-03-25T23:07:31.277Z,1.87
2019-03-25T23:10:02.248Z,2.30
2019-03-25T23:12:31.342Z,1.90
2019-03-25T23:15:00.410Z,1.70
2019-03-25T23:17:29.398Z,2.23
2019-03-25T23:19:58.364Z,2.10
2019-03-25T23:22:27.372Z,2.63
2019-03-25T23:24:56.460Z,1.67
2019-03-25T23:27:25.449Z,2.13
2019-03-25T23:29:54.427Z,2.20
2019-03-25T23:32:23.521Z,2.30
2019-03-25T23:34:52.525Z,2.13
2019-03-25T23:37:21.489Z,1.73
2019-03-25T23:39:50.513Z,2.00
2019-03-25T23:42:19.491Z,2.00
2019-03-25T23:44:48.471Z,1.60
2019-03-25T23:47:17.520Z,1.67
2019-03-25T23:49:46.525Z,1.53
2019-03-25T23:52:15.588Z,1.90
2019-03-25T23:54:44.577Z,1.73
2019-03-25T23:57:13.594Z,2.30
2019-03-25T23:59:42.616Z,1.90
